createdAt,value
2018-04-23T00:00:05.711Z,67.73
2018-04-23T00:02:33.254Z,67.91
2018-04-23T00:05:00.818Z,70.32
2018-04-23T00:07:28.484Z,71.43
2018-04-23T00:09:56.099Z,71.31
2018-04-23T00:12:23.752Z,71.48
2018-04-23T00:14:51.313Z,71.48
2018-04-23T00:17:18.923Z,70.02
2018-04-23T00:19:46.483Z,70.00
2018-04-23T00:22:14.084Z,70.17
2018-04-23T00:24:41.642Z,70.88
2018-04-23T00:27:09.241Z,71.47
2018-04-23T00:29:36.842Z,72.60
2018-04-23T00:32:04.462Z,72.87
2018-04-23T00:34:32.084Z,72.13
2018-04-23T00:36:59.643Z,71.86
2018-04-23T00:39:27.303Z,72.26
2018-04-23T00:41:54.929Z,72.92
2018-04-23T00:44:22.607Z,73.84
2018-04-23T00:46:50.163Z,74.77
2018-04-23T00:49:17.738Z,74.84
2018-04-23T00:51:45.335Z,74.74
2018-04-23T00:54:13.055Z,74.23
2018-04-23T00:56:40.610Z,73.93
2018-04-23T00:59:08.174Z,73.54
2018-04-23T01:01:35.838Z,72.74
2018-04-23T01:04:03.400Z,73.00
2018-04-23T01:06:31.003Z,73.79
2018-04-23T01:08:58.587Z,73.86
2018-04-23T01:11:26.200Z,74.06
2018-04-23T01:13:53.755Z,73.59
2018-04-23T01:16:21.355Z,72.99
2018-04-23T01:18:48.958Z,72.74
2018-04-23T01:21:16.519Z,73.25
2018-04-23T01:26:11.012Z,74.59
2018-04-23T01:28:38.605Z,74.73
2018-04-23T01:31:06.167Z,74.60
2018-04-23T01:33:33.835Z,75.09
2018-04-23T01:36:01.383Z,75.51
2018-04-23T01:38:28.934Z,76.08
2018-04-23T01:40:56.626Z,76.32
2018-04-23T01:43:24.182Z,76.23
2018-04-23T01:45:51.739Z,76.19
2018-04-23T01:48:19.330Z,76.30
2018-04-23T01:50:46.879Z,76.53
2018-04-23T01:53:14.495Z,76.75
2018-04-23T01:55:42.056Z,76.96
2018-04-23T01:58:09.620Z,77.65
2018-04-23T02:00:37.244Z,77.87
2018-04-23T02:03:04.883Z,77.97
2018-04-23T02:05:32.463Z,78.10
2018-04-23T02:08:00.063Z,78.21
2018-04-23T02:10:27.631Z,78.25
2018-04-23T02:12:55.242Z,78.54
2018-04-23T02:15:22.856Z,78.82
2018-04-23T02:17:50.540Z,79.14
2018-04-23T02:20:18.115Z,79.37
2018-04-23T02:22:45.667Z,79.73
2018-04-23T02:25:13.370Z,80.10
2018-04-23T02:27:40.922Z,80.48
2018-04-23T02:30:08.538Z,80.58
2018-04-23T02:32:36.157Z,80.61
2018-04-23T02:35:03.769Z,79.87
2018-04-23T02:37:32.041Z,78.53
2018-04-23T02:39:59.643Z,77.85
2018-04-23T02:42:27.198Z,76.99
2018-04-23T02:44:54.799Z,77.66
2018-04-23T02:47:22.355Z,78.75
2018-04-23T02:49:49.910Z,79.25
2018-04-23T02:52:17.534Z,79.87
2018-04-23T02:54:45.090Z,79.74
2018-04-23T02:57:12.703Z,78.67
2018-04-23T02:59:40.319Z,78.03
2018-04-23T03:02:07.943Z,77.89
2018-04-23T03:04:35.503Z,77.41
2018-04-23T03:07:03.051Z,77.17
2018-04-23T03:09:30.646Z,76.25
2018-04-23T03:11:58.202Z,76.17
2018-04-23T03:14:25.828Z,76.59
2018-04-23T03:16:53.374Z,76.52
2018-04-23T03:19:20.982Z,75.96
2018-04-23T03:21:48.619Z,75.93
2018-04-23T03:24:16.179Z,76.36
2018-04-23T03:26:44.757Z,76.25
2018-04-23T03:29:12.412Z,75.92
2018-04-23T03:31:40.019Z,75.38
2018-04-23T03:34:07.634Z,75.16
2018-04-23T03:36:35.294Z,74.64
2018-04-23T03:39:02.915Z,73.93
2018-04-23T03:41:30.463Z,73.70
2018-04-23T03:43:58.063Z,73.60
2018-04-23T03:46:25.680Z,73.58
2018-04-23T03:48:53.279Z,73.60
2018-04-23T03:51:20.939Z,74.18
2018-04-23T03:53:48.558Z,74.04
2018-04-23T03:56:16.167Z,73.83
2018-04-23T03:58:43.721Z,73.83
2018-04-23T04:01:11.267Z,73.04
2018-04-23T04:03:39.003Z,72.04
2018-04-23T04:06:06.562Z,71.66
2018-04-23T04:08:34.181Z,72.14
2018-04-23T04:11:02.707Z,72.46
2018-04-23T04:13:41.948Z,71.73
2018-04-23T04:16:21.396Z,71.28
2018-04-23T04:18:49.007Z,71.04
2018-04-23T04:21:16.551Z,71.12
2018-04-23T04:23:44.160Z,70.87
2018-04-23T04:26:11.779Z,71.04
2018-04-23T04:28:39.333Z,71.78
2018-04-23T04:31:06.948Z,72.62
2018-04-23T04:33:34.575Z,71.66
2018-04-23T04:36:02.177Z,71.02
2018-04-23T04:38:29.732Z,71.11
2018-04-23T04:40:57.335Z,70.41
2018-04-23T04:43:25.015Z,69.82
2018-04-23T04:45:52.579Z,69.02
2018-04-23T04:48:20.383Z,66.98
2018-04-23T04:50:47.984Z,66.15
2018-04-23T04:53:15.587Z,65.90
2018-04-23T04:55:43.211Z,63.19
2018-04-23T04:58:11.827Z,61.82
2018-04-23T05:00:39.497Z,60.67
2018-04-23T05:03:07.049Z,58.19
2018-04-23T05:05:34.656Z,58.91
2018-04-23T05:08:02.292Z,60.04
2018-04-23T05:10:29.851Z,60.93
2018-04-23T05:12:57.445Z,59.41
2018-04-23T05:15:25.035Z,59.17
2018-04-23T05:17:52.614Z,60.45
2018-04-23T05:20:20.248Z,61.11
2018-04-23T05:22:47.862Z,60.81
2018-04-23T05:25:16.630Z,61.31
2018-04-23T05:27:44.252Z,60.81
2018-04-23T05:30:11.812Z,61.73
2018-04-23T05:32:39.363Z,60.59
2018-04-23T05:35:07.596Z,60.31
2018-04-23T05:37:35.188Z,57.79
2018-04-23T05:40:02.803Z,56.34
2018-04-23T05:42:30.711Z,56.94
2018-04-23T05:44:58.327Z,57.13
2018-04-23T05:47:25.878Z,58.09
2018-04-23T05:49:53.511Z,57.76
2018-04-23T05:52:21.124Z,57.69
2018-04-23T05:54:49.431Z,56.94
2018-04-23T05:57:17.105Z,54.06
2018-04-23T05:59:44.773Z,54.03
2018-04-23T06:02:12.348Z,52.73
2018-04-23T06:04:39.947Z,52.87
2018-04-23T06:07:07.572Z,54.42
2018-04-23T06:09:37.895Z,55.11
2018-04-23T06:12:07.444Z,54.72
2018-04-23T06:14:35.099Z,54.92
2018-04-23T06:17:02.722Z,53.89
2018-04-23T06:19:30.292Z,53.41
2018-04-23T06:21:57.915Z,50.78
2018-04-23T06:24:26.399Z,49.75
2018-04-23T06:26:54.007Z,48.88
2018-04-23T06:29:21.619Z,48.20
2018-04-23T06:31:49.229Z,47.18
2018-04-23T06:34:17.830Z,47.47
2018-04-23T06:36:45.380Z,45.46
2018-04-23T06:39:12.934Z,42.48
2018-04-23T06:41:40.591Z,37.04
2018-04-23T06:44:08.142Z,34.92
2018-04-23T06:46:35.791Z,35.13
2018-04-23T06:49:03.383Z,36.64
2018-04-23T06:51:31.000Z,34.89
2018-04-23T06:53:58.603Z,45.44
2018-04-23T06:56:26.219Z,45.55
2018-04-23T06:58:53.823Z,47.17
2018-04-23T07:01:21.427Z,45.06
2018-04-23T07:03:49.108Z,44.66
2018-04-23T07:06:16.819Z,46.31
2018-04-23T07:08:44.374Z,44.85
2018-04-23T07:11:11.987Z,44.01
2018-04-23T07:13:39.662Z,42.40
2018-04-23T07:16:07.280Z,39.39
2018-04-23T07:18:34.976Z,37.11
2018-04-23T07:21:02.654Z,35.54
2018-04-23T07:23:30.216Z,34.16
2018-04-23T07:25:57.858Z,31.19
2018-04-23T07:28:25.414Z,30.24
2018-04-23T07:30:52.983Z,30.06
2018-04-23T07:33:20.594Z,30.94
2018-04-23T07:35:48.222Z,28.65
2018-04-23T07:38:16.099Z,28.61
2018-04-23T07:40:43.703Z,25.65
2018-04-23T07:43:11.315Z,24.18
2018-04-23T07:45:38.872Z,23.88
2018-04-23T07:48:06.419Z,23.96
2018-04-23T07:50:34.075Z,23.36
2018-04-23T07:53:01.631Z,22.21
2018-04-23T07:55:29.302Z,21.80
2018-04-23T07:57:56.927Z,24.66
2018-04-23T08:00:24.550Z,21.48
2018-04-23T08:02:52.724Z,23.48
2018-04-23T08:05:20.283Z,23.29
2018-04-23T08:07:47.957Z,22.92
2018-04-23T08:10:15.568Z,22.83
2018-04-23T08:12:43.231Z,23.24
2018-04-23T08:15:10.867Z,20.66
2018-04-23T08:17:38.556Z,21.34
2018-04-23T08:20:06.237Z,20.85
2018-04-23T08:22:33.859Z,20.94
2018-04-23T08:25:01.423Z,21.86
2018-04-23T08:27:28.996Z,20.01
2018-04-23T08:29:56.628Z,20.21
2018-04-23T08:32:24.187Z,20.84
2018-04-23T08:34:51.901Z,21.35
2018-04-23T08:37:19.518Z,19.64
2018-04-23T08:39:47.158Z,20.77
2018-04-23T08:42:14.755Z,19.40
2018-04-23T08:44:42.427Z,18.50
2018-04-23T08:47:09.986Z,17.95
2018-04-23T08:49:37.615Z,19.33
2018-04-23T08:52:05.250Z,17.94
2018-04-23T08:54:32.931Z,18.47
2018-04-23T08:57:01.283Z,17.53
2018-04-23T08:59:28.950Z,16.73
2018-04-23T09:01:56.520Z,17.23
2018-04-23T09:04:24.201Z,17.27
2018-04-23T09:06:51.848Z,16.54
2018-04-23T09:09:19.421Z,16.47
2018-04-23T09:11:47.053Z,17.20
2018-04-23T09:14:14.669Z,15.48
2018-04-23T09:16:42.280Z,16.10
2018-04-23T09:19:09.892Z,16.52
2018-04-23T09:21:37.503Z,16.05
2018-04-23T09:24:05.179Z,15.72
2018-04-23T09:26:32.727Z,15.58
2018-04-23T09:29:00.308Z,15.90
2018-04-23T09:31:27.953Z,15.71
2018-04-23T09:33:55.550Z,15.03
2018-04-23T09:36:23.165Z,14.19
2018-04-23T09:38:51.614Z,14.10
2018-04-23T09:41:19.224Z,13.03
2018-04-23T09:43:46.853Z,12.14
2018-04-23T09:46:14.452Z,12.83
2018-04-23T09:48:42.003Z,12.44
2018-04-23T09:51:09.614Z,13.23
2018-04-23T09:53:37.240Z,12.08
2018-04-23T09:56:04.799Z,11.79
2018-04-23T09:58:32.400Z,11.57
2018-04-23T10:01:00.130Z,13.06
2018-04-23T10:03:27.818Z,11.83
2018-04-23T10:05:55.387Z,9.92
2018-04-23T10:08:22.952Z,9.80
2018-04-23T10:10:50.623Z,11.03
2018-04-23T10:13:18.184Z,9.63
2018-04-23T10:15:45.809Z,9.44
2018-04-23T10:18:13.364Z,10.34
2018-04-23T10:20:41.397Z,10.95
2018-04-23T10:23:09.053Z,8.97
2018-04-23T10:25:36.681Z,9.60
2018-04-23T10:28:04.329Z,9.09
2018-04-23T10:30:31.888Z,8.86
2018-04-23T10:32:59.498Z,8.11
2018-04-23T10:35:27.213Z,7.39
2018-04-23T10:37:54.850Z,6.70
2018-04-23T10:40:22.433Z,7.08
2018-04-23T10:42:50.021Z,7.89
2018-04-23T10:45:17.579Z,7.24
2018-04-23T10:47:45.206Z,7.24
2018-04-23T10:50:12.751Z,7.34
2018-04-23T10:52:41.299Z,6.05
2018-04-23T10:55:08.953Z,6.14
2018-04-23T10:57:36.507Z,6.26
2018-04-23T11:00:04.296Z,5.73
2018-04-23T11:02:31.850Z,5.61
2018-04-23T11:04:59.461Z,5.77
2018-04-23T11:07:27.094Z,6.92
2018-04-23T11:09:54.710Z,6.47
2018-04-23T11:12:22.319Z,5.98
2018-04-23T11:14:49.922Z,5.92
2018-04-23T11:17:17.475Z,6.74
2018-04-23T11:19:45.084Z,6.05
2018-04-23T11:22:12.763Z,6.56
2018-04-23T11:24:40.318Z,5.74
2018-04-23T11:27:07.970Z,6.43
2018-04-23T11:29:35.604Z,6.11
2018-04-23T11:32:03.162Z,6.50
2018-04-23T11:34:30.766Z,6.63
2018-04-23T11:36:58.401Z,6.39
2018-04-23T11:39:26.068Z,6.12
2018-04-23T11:41:53.882Z,6.70
2018-04-23T11:44:21.492Z,4.69
2018-04-23T11:46:49.100Z,5.25
2018-04-23T11:49:16.758Z,5.57
2018-04-23T11:51:44.351Z,5.79
2018-04-23T11:54:12.020Z,5.68
2018-04-23T11:56:39.603Z,5.41
2018-04-23T11:59:07.199Z,5.44
2018-04-23T12:01:35.515Z,4.79
2018-04-23T12:04:03.108Z,4.40
2018-04-23T12:06:30.721Z,5.64
2018-04-23T12:08:58.391Z,6.17
2018-04-23T12:11:25.950Z,6.46
2018-04-23T12:13:53.504Z,5.46
2018-04-23T12:16:21.109Z,6.76
2018-04-23T12:18:48.675Z,6.42
2018-04-23T12:21:16.222Z,6.11
2018-04-23T12:23:43.906Z,4.95
2018-04-23T12:26:11.518Z,5.53
2018-04-23T12:28:39.928Z,5.30
2018-04-23T12:31:07.543Z,5.08
2018-04-23T12:33:35.168Z,5.49
2018-04-23T12:36:02.724Z,5.82
2018-04-23T12:38:30.322Z,6.10
2018-04-23T12:40:57.935Z,5.13
2018-04-23T12:43:25.599Z,5.45
2018-04-23T12:45:53.279Z,6.25
2018-04-23T12:48:20.812Z,6.69
2018-04-23T12:50:48.438Z,5.83
2018-04-23T12:53:15.985Z,5.89
2018-04-23T12:55:43.531Z,4.70
2018-04-23T12:58:11.206Z,5.11
2018-04-23T13:00:38.849Z,4.80
2018-04-23T13:03:07.046Z,4.71
2018-04-23T13:05:35.574Z,4.93
2018-04-23T13:08:03.164Z,5.90
2018-04-23T13:10:30.709Z,5.69
2018-04-23T13:12:58.312Z,5.40
2018-04-23T13:15:25.884Z,5.72
2018-04-23T13:17:53.486Z,5.68
2018-04-23T13:20:21.043Z,5.99
2018-04-23T13:22:48.611Z,4.82
2018-04-23T13:25:16.199Z,5.12
2018-04-23T13:27:44.588Z,4.71
2018-04-23T13:30:12.174Z,5.24
2018-04-23T13:32:40.553Z,6.14
2018-04-23T13:35:08.216Z,4.80
2018-04-23T13:37:36.545Z,4.64
2018-04-23T13:40:04.149Z,5.22
2018-04-23T13:42:31.845Z,7.16
2018-04-23T13:44:59.499Z,6.34
2018-04-23T13:47:27.047Z,8.20
2018-04-23T13:49:54.593Z,7.13
2018-04-23T13:52:22.210Z,7.39
2018-04-23T13:54:49.756Z,9.00
2018-04-23T13:57:17.299Z,9.56
2018-04-23T13:59:44.936Z,9.10
2018-04-23T14:02:12.491Z,10.83
2018-04-23T14:04:40.104Z,10.23
2018-04-23T14:07:07.803Z,9.71
2018-04-23T14:09:35.413Z,10.57
2018-04-23T14:12:02.965Z,10.58
2018-04-23T14:14:30.574Z,10.61
2018-04-23T14:16:59.104Z,10.61
2018-04-23T14:19:27.408Z,10.65
2018-04-23T14:21:54.965Z,11.02
2018-04-23T14:24:23.163Z,11.47
2018-04-23T14:26:50.759Z,10.25
2018-04-23T14:29:18.556Z,11.19
2018-04-23T14:31:46.238Z,12.17
2018-04-23T14:34:13.808Z,10.42
2018-04-23T14:36:41.929Z,11.98
2018-04-23T14:39:09.543Z,11.77
2018-04-23T14:41:37.796Z,11.69
2018-04-23T14:44:05.431Z,11.69
2018-04-23T14:46:33.096Z,12.14
2018-04-23T14:49:00.708Z,11.90
2018-04-23T14:51:28.380Z,12.74
2018-04-23T14:53:57.138Z,12.41
2018-04-23T14:56:25.240Z,11.82
2018-04-23T14:58:52.833Z,12.90
2018-04-23T15:01:20.388Z,13.10
2018-04-23T15:03:47.990Z,12.84
2018-04-23T15:06:15.763Z,13.29
2018-04-23T15:08:43.322Z,12.83
2018-04-23T15:11:10.928Z,12.35
2018-04-23T15:13:38.506Z,13.55
2018-04-23T15:16:06.163Z,13.66
2018-04-23T15:18:33.718Z,14.90
2018-04-23T15:21:01.308Z,15.91
2018-04-23T15:23:28.931Z,15.79
2018-04-23T15:25:57.159Z,15.59
2018-04-23T15:28:24.917Z,14.71
2018-04-23T15:30:52.571Z,14.47
2018-04-23T15:33:20.119Z,15.61
2018-04-23T15:35:48.260Z,15.61
2018-04-23T15:38:15.859Z,15.92
2018-04-23T15:40:44.139Z,17.40
2018-04-23T15:43:11.704Z,17.06
2018-04-23T15:45:41.152Z,17.05
2018-04-23T15:48:08.703Z,17.85
2018-04-23T15:50:37.003Z,17.16
2018-04-23T15:53:04.552Z,17.91
2018-04-23T15:55:33.059Z,18.08
2018-04-23T15:58:00.727Z,19.46
2018-04-23T16:00:28.274Z,19.82
2018-04-23T16:02:57.775Z,22.04
2018-04-23T16:05:27.871Z,23.08
2018-04-23T16:07:55.571Z,24.11
2018-04-23T16:10:23.151Z,25.00
2018-04-23T16:12:50.723Z,26.20
2018-04-23T16:15:19.271Z,26.56
2018-04-23T16:17:47.438Z,28.26
2018-04-23T16:20:16.259Z,27.89
2018-04-23T16:22:43.872Z,29.22
2018-04-23T16:25:11.503Z,30.01
2018-04-23T16:27:40.152Z,29.50
2018-04-23T16:30:07.769Z,29.71
2018-04-23T16:32:35.398Z,29.07
2018-04-23T16:35:02.963Z,29.50
2018-04-23T16:37:30.563Z,30.20
2018-04-23T16:39:58.764Z,31.86
2018-04-23T16:42:27.392Z,31.89
2018-04-23T16:44:55.171Z,33.36
2018-04-23T16:47:22.758Z,34.01
2018-04-23T16:49:50.564Z,33.79
2018-04-23T16:52:20.515Z,33.31
2018-04-23T16:54:48.099Z,33.82
2018-04-23T16:57:16.747Z,34.91
2018-04-23T16:59:45.772Z,35.15
2018-04-23T17:02:13.327Z,36.05
2018-04-23T17:04:41.269Z,36.14
2018-04-23T17:07:08.911Z,36.19
2018-04-23T17:09:36.581Z,36.85
2018-04-23T17:12:04.284Z,37.51
2018-04-23T17:14:31.944Z,37.00
2018-04-23T17:16:59.552Z,38.99
2018-04-23T17:19:27.166Z,38.05
2018-04-23T17:21:55.680Z,37.99
2018-04-23T17:24:23.287Z,38.08
2018-04-23T17:26:50.883Z,39.17
2018-04-23T17:29:18.496Z,38.64
2018-04-23T17:31:46.091Z,39.78
2018-04-23T17:34:13.651Z,39.26
2018-04-23T17:36:41.935Z,38.91
2018-04-23T17:39:09.644Z,38.64
2018-04-23T17:41:37.307Z,39.48
2018-04-23T17:44:04.927Z,39.79
2018-04-23T17:46:32.588Z,39.88
2018-04-23T17:49:00.209Z,40.51
2018-04-23T17:51:27.802Z,41.42
2018-04-23T17:53:55.403Z,41.79
2018-04-23T17:56:22.995Z,42.37
2018-04-23T17:58:50.679Z,43.48
2018-04-23T18:01:18.591Z,43.24
2018-04-23T18:03:46.205Z,43.98
2018-04-23T18:06:13.820Z,43.62
2018-04-23T18:08:43.303Z,44.06
2018-04-23T18:11:11.712Z,44.58
2018-04-23T18:13:39.315Z,44.81
2018-04-23T18:16:07.004Z,45.49
2018-04-23T18:18:34.659Z,47.30
2018-04-23T18:21:02.211Z,46.90
2018-04-23T18:23:30.775Z,47.01
2018-04-23T18:25:59.234Z,47.20
2018-04-23T18:28:26.799Z,47.68
2018-04-23T18:30:54.347Z,48.48
2018-04-23T18:33:23.836Z,48.95
2018-04-23T18:35:51.396Z,49.55
2018-04-23T18:38:19.694Z,50.06
2018-04-23T18:40:47.359Z,50.32
2018-04-23T18:43:15.641Z,50.71
2018-04-23T18:45:43.325Z,50.67
2018-04-23T18:48:10.967Z,51.27
2018-04-23T18:50:39.348Z,51.46
2018-04-23T18:53:07.052Z,50.60
2018-04-23T18:55:34.826Z,50.48
2018-04-23T18:58:03.052Z,50.96
2018-04-23T19:00:31.673Z,52.03
2018-04-23T19:02:59.963Z,53.24
2018-04-23T19:05:28.552Z,54.14
2018-04-23T19:07:56.165Z,53.87
2018-04-23T19:10:24.239Z,54.19
2018-04-23T19:12:51.927Z,54.48
2018-04-23T19:15:19.483Z,56.82
2018-04-23T19:17:47.035Z,54.83
2018-04-23T19:20:14.673Z,55.40
2018-04-23T19:22:42.473Z,53.81
2018-04-23T19:25:10.836Z,49.57
2018-04-23T19:27:38.455Z,47.12
2018-04-23T19:30:06.018Z,48.42
2018-04-23T19:32:34.190Z,51.44
2018-04-23T19:35:01.819Z,52.65
2018-04-23T19:37:30.211Z,52.46
2018-04-23T19:39:57.832Z,56.48
2018-04-23T19:42:26.272Z,58.45
2018-04-23T19:44:53.871Z,58.75
2018-04-23T19:47:21.423Z,59.17
2018-04-23T19:49:49.019Z,59.44
2018-04-23T19:52:16.630Z,59.71
2018-04-23T19:54:44.249Z,59.88
2018-04-23T19:57:13.758Z,60.22
2018-04-23T19:59:41.347Z,61.30
2018-04-23T20:02:08.911Z,61.62
2018-04-23T20:04:36.516Z,60.69
2018-04-23T20:07:04.659Z,61.45
2018-04-23T20:09:32.382Z,62.25
2018-04-23T20:11:59.987Z,62.86
2018-04-23T20:14:27.634Z,64.62
2018-04-23T20:16:55.621Z,65.41
2018-04-23T20:19:23.182Z,66.71
2018-04-23T20:21:50.804Z,68.53
2018-04-23T20:24:18.538Z,67.29
2018-04-23T20:26:46.539Z,66.05
2018-04-23T20:29:14.187Z,59.48
2018-04-23T20:31:41.892Z,54.54
2018-04-23T20:34:09.480Z,57.90
2018-04-23T20:36:37.431Z,59.44
2018-04-23T20:39:05.296Z,60.26
2018-04-23T20:41:32.900Z,60.72
2018-04-23T20:44:00.451Z,61.00
2018-04-23T20:46:28.136Z,61.75
2018-04-23T20:48:55.691Z,62.59
2018-04-23T20:51:23.276Z,62.42
2018-04-23T20:53:50.935Z,62.29
2018-04-23T20:56:18.559Z,63.55
2018-04-23T20:58:46.233Z,63.27
2018-04-23T21:01:13.828Z,60.90
2018-04-23T21:03:42.315Z,60.01
2018-04-23T21:06:09.979Z,61.87
2018-04-23T21:08:38.514Z,63.76
2018-04-23T21:11:06.208Z,63.94
2018-04-23T21:13:33.795Z,64.52
2018-04-23T21:16:01.399Z,65.67
2018-04-23T21:18:28.956Z,66.28
2018-04-23T21:20:56.525Z,66.16
2018-04-23T21:23:24.197Z,66.56
2018-04-23T21:25:51.825Z,67.15
2018-04-23T21:28:19.459Z,68.07
2018-04-23T21:30:47.019Z,67.44
2018-04-23T21:33:14.668Z,66.80
2018-04-23T21:35:42.222Z,67.88
2018-04-23T21:38:10.715Z,68.56
2018-04-23T21:40:38.310Z,65.34
2018-04-23T21:43:05.856Z,65.03
2018-04-23T21:45:33.462Z,64.83
2018-04-23T21:48:01.024Z,64.46
2018-04-23T21:50:28.582Z,64.18
2018-04-23T21:52:56.251Z,64.14
2018-04-23T21:55:23.807Z,64.58
2018-04-23T21:57:51.359Z,64.74
2018-04-23T22:00:18.957Z,64.95
2018-04-23T22:02:47.307Z,65.87
2018-04-23T22:05:14.935Z,66.73
2018-04-23T22:07:42.867Z,67.62
2018-04-23T22:10:11.209Z,66.85
2018-04-23T22:12:39.435Z,65.69
2018-04-23T22:15:07.177Z,63.50
2018-04-23T22:17:34.732Z,62.16
2018-04-23T22:20:02.275Z,59.86
2018-04-23T22:22:30.667Z,63.87
2018-04-23T22:24:58.218Z,63.39
2018-04-23T22:27:25.811Z,63.91
2018-04-23T22:29:54.194Z,63.22
2018-04-23T22:32:21.812Z,62.95
2018-04-23T22:34:49.850Z,63.18
2018-04-23T22:37:17.479Z,64.66
2018-04-23T22:39:45.471Z,65.91
2018-04-23T22:42:13.035Z,65.19
2018-04-23T22:44:40.623Z,64.02
2018-04-23T22:47:08.230Z,64.60
2018-04-23T22:49:35.783Z,64.00
2018-04-23T22:52:03.340Z,62.76
2018-04-23T22:54:30.947Z,64.41
2018-04-23T22:56:58.552Z,64.40
2018-04-23T22:59:26.251Z,62.82
2018-04-23T23:01:53.802Z,62.09
2018-04-23T23:04:21.347Z,61.06
2018-04-23T23:06:48.947Z,63.87
2018-04-23T23:09:16.576Z,63.67
2018-04-23T23:11:44.129Z,63.80
2018-04-23T23:14:11.715Z,64.66
2018-04-23T23:16:39.263Z,64.95
2018-04-23T23:19:06.865Z,62.99
2018-04-23T23:21:34.475Z,64.15
2018-04-23T23:24:02.132Z,63.74
2018-04-23T23:26:29.687Z,64.02
2018-04-23T23:28:57.294Z,62.83
2018-04-23T23:31:24.903Z,62.92
2018-04-23T23:33:52.496Z,62.60
2018-04-23T23:36:20.115Z,63.03
2018-04-23T23:38:47.707Z,62.26
2018-04-23T23:41:15.259Z,62.83
2018-04-23T23:43:42.850Z,63.65
2018-04-23T23:46:10.459Z,63.47
2018-04-23T23:48:38.082Z,64.04
2018-04-23T23:51:05.675Z,64.39
2018-04-23T23:53:33.319Z,66.41
2018-04-23T23:56:00.927Z,67.18
2018-04-23T23:58:28.485Z,66.40
